sensor_id;sensor_type;location;lat;lon;timestamp;temperature;humidity
26579;DHT22;14227;47.674;19.320;2023-05-07T00:01:18;13.30;72.10
26579;DHT22;14227;47.674;19.320;2023-05-07T00:07:07;13.10;72.90
26579;DHT22;14227;47.674;19.320;2023-05-07T00:09:33;13.00;73.00
26579;DHT22;14227;47.674;19.320;2023-05-07T00:11:59;12.90;73.50
26579;DHT22;14227;47.674;19.320;2023-05-07T00:14:26;12.90;73.70
26579;DHT22;14227;47.674;19.320;2023-05-07T00:23:26;12.70;74.00
26579;DHT22;14227;47.674;19.320;2023-05-07T00:25:51;12.60;73.70
26579;DHT22;14227;47.674;19.320;2023-05-07T00:28:51;12.60;76.00
26579;DHT22;14227;47.674;19.320;2023-05-07T00:41:28;12.70;74.10
26579;DHT22;14227;47.674;19.320;2023-05-07T00:51:06;12.70;73.70
26579;DHT22;14227;47.674;19.320;2023-05-07T00:57:14;12.70;73.80
26579;DHT22;14227;47.674;19.320;2023-05-07T05:50:42;22.50;52.80
26579;DHT22;14227;47.674;19.320;2023-05-07T05:53:07;23.20;50.40
26579;DHT22;14227;47.674;19.320;2023-05-07T05:55:33;23.70;49.30
26579;DHT22;14227;47.674;19.320;2023-05-07T05:58:19;23.90;48.70
26579;DHT22;14227;47.674;19.320;2023-05-07T06:04:16;24.80;47.00
26579;DHT22;14227;47.674;19.320;2023-05-07T06:10:05;25.30;42.90
26579;DHT22;14227;47.674;19.320;2023-05-07T06:12:31;25.60;42.50
26579;DHT22;14227;47.674;19.320;2023-05-07T06:14:57;26.00;42.20
26579;DHT22;14227;47.674;19.320;2023-05-07T06:17:23;26.10;41.90
26579;DHT22;14227;47.674;19.320;2023-05-07T06:19:48;26.40;40.40
26579;DHT22;14227;47.674;19.320;2023-05-07T06:22:14;26.70;40.50
26579;DHT22;14227;47.674;19.320;2023-05-07T06:24:40;27.00;39.10
26579;DHT22;14227;47.674;19.320;2023-05-07T06:27:06;27.20;38.40
26579;DHT22;14227;47.674;19.320;2023-05-07T06:29:31;27.50;38.90
26579;DHT22;14227;47.674;19.320;2023-05-07T06:32:08;27.70;37.70
26579;DHT22;14227;47.674;19.320;2023-05-07T06:34:35;27.90;37.80
26579;DHT22;14227;47.674;19.320;2023-05-07T06:37:01;28.00;34.70
26579;DHT22;14227;47.674;19.320;2023-05-07T06:39:27;28.40;34.30
26579;DHT22;14227;47.674;19.320;2023-05-07T06:41:53;28.80;33.00
26579;DHT22;14227;47.674;19.320;2023-05-07T06:44:19;29.10;30.30
26579;DHT22;14227;47.674;19.320;2023-05-07T06:46:44;29.30;30.00
26579;DHT22;14227;47.674;19.320;2023-05-07T06:49:12;29.40;29.40
26579;DHT22;14227;47.674;19.320;2023-05-07T06:51:37;29.60;28.90
26579;DHT22;14227;47.674;19.320;2023-05-07T06:54:03;30.00;28.40
26579;DHT22;14227;47.674;19.320;2023-05-07T06:56:30;30.30;28.70
26579;DHT22;14227;47.674;19.320;2023-05-07T06:58:56;30.60;27.20
26579;DHT22;14227;47.674;19.320;2023-05-07T07:01:22;30.90;26.70
26579;DHT22;14227;47.674;19.320;2023-05-07T07:03:47;31.20;26.10
26579;DHT22;14227;47.674;19.320;2023-05-07T07:06:14;31.70;25.40
26579;DHT22;14227;47.674;19.320;2023-05-07T07:08:39;32.20;24.80
26579;DHT22;14227;47.674;19.320;2023-05-07T07:11:05;32.70;23.70
26579;DHT22;14227;47.674;19.320;2023-05-07T07:13:31;33.10;23.40
26579;DHT22;14227;47.674;19.320;2023-05-07T07:15:57;33.30;23.00
26579;DHT22;14227;47.674;19.320;2023-05-07T07:18:23;33.30;22.00
26579;DHT22;14227;47.674;19.320;2023-05-07T07:20:49;33.00;21.20
26579;DHT22;14227;47.674;19.320;2023-05-07T07:23:14;32.80;21.10
26579;DHT22;14227;47.674;19.320;2023-05-07T07:25:40;32.80;21.30
26579;DHT22;14227;47.674;19.320;2023-05-07T07:28:06;33.00;20.40
26579;DHT22;14227;47.674;19.320;2023-05-07T07:30:32;33.30;20.30
26579;DHT22;14227;47.674;19.320;2023-05-07T07:32:57;33.80;19.90
26579;DHT22;14227;47.674;19.320;2023-05-07T07:35:31;34.10;19.70
26579;DHT22;14227;47.674;19.320;2023-05-07T07:37:57;34.20;19.50
26579;DHT22;14227;47.674;19.320;2023-05-07T07:40:24;34.30;20.00
26579;DHT22;14227;47.674;19.320;2023-05-07T07:42:53;34.60;19.60
26579;DHT22;14227;47.674;19.320;2023-05-07T07:45:20;34.80;19.50
26579;DHT22;14227;47.674;19.320;2023-05-07T07:47:45;35.10;18.40
26579;DHT22;14227;47.674;19.320;2023-05-07T07:50:11;35.40;18.60
26579;DHT22;14227;47.674;19.320;2023-05-07T07:52:37;35.50;18.60
26579;DHT22;14227;47.674;19.320;2023-05-07T07:55:03;35.60;18.40
26579;DHT22;14227;47.674;19.320;2023-05-07T07:57:30;35.40;17.10
26579;DHT22;14227;47.674;19.320;2023-05-07T07:59:55;35.50;16.40
26579;DHT22;14227;47.674;19.320;2023-05-07T08:02:21;35.60;16.00
26579;DHT22;14227;47.674;19.320;2023-05-07T08:04:47;35.80;16.90
26579;DHT22;14227;47.674;19.320;2023-05-07T08:07:13;35.80;16.20
26579;DHT22;14227;47.674;19.320;2023-05-07T08:09:39;36.40;16.20
26579;DHT22;14227;47.674;19.320;2023-05-07T08:12:06;37.00;15.20
26579;DHT22;14227;47.674;19.320;2023-05-07T08:14:33;37.30;15.30
26579;DHT22;14227;47.674;19.320;2023-05-07T08:16:59;37.20;14.60
26579;DHT22;14227;47.674;19.320;2023-05-07T08:19:25;37.10;15.00
26579;DHT22;14227;47.674;19.320;2023-05-07T08:21:51;36.90;14.90
26579;DHT22;14227;47.674;19.320;2023-05-07T08:24:17;36.20;15.80
26579;DHT22;14227;47.674;19.320;2023-05-07T08:26:44;35.80;16.50
26579;DHT22;14227;47.674;19.320;2023-05-07T08:29:10;35.80;16.30
26579;DHT22;14227;47.674;19.320;2023-05-07T08:31:36;35.90;15.60
26579;DHT22;14227;47.674;19.320;2023-05-07T08:34:04;35.40;16.10
26579;DHT22;14227;47.674;19.320;2023-05-07T08:36:30;34.50;16.10
26579;DHT22;14227;47.674;19.320;2023-05-07T08:38:56;33.50;17.50
26579;DHT22;14227;47.674;19.320;2023-05-07T08:41:21;33.70;17.60
26579;DHT22;14227;47.674;19.320;2023-05-07T08:43:48;33.60;17.50
26579;DHT22;14227;47.674;19.320;2023-05-07T08:46:20;33.30;17.40
26579;DHT22;14227;47.674;19.320;2023-05-07T08:48:49;33.00;17.20
26579;DHT22;14227;47.674;19.320;2023-05-07T08:51:18;32.50;18.40
26579;DHT22;14227;47.674;19.320;2023-05-07T08:53:44;32.20;18.90
26579;DHT22;14227;47.674;19.320;2023-05-07T08:56:11;32.20;18.80
26579;DHT22;14227;47.674;19.320;2023-05-07T08:58:37;32.90;18.00
26579;DHT22;14227;47.674;19.320;2023-05-07T09:01:10;33.60;17.50
26579;DHT22;14227;47.674;19.320;2023-05-07T09:03:38;33.90;16.60
26579;DHT22;14227;47.674;19.320;2023-05-07T09:06:05;34.30;16.20
26579;DHT22;14227;47.674;19.320;2023-05-07T09:08:32;34.50;15.80
26579;DHT22;14227;47.674;19.320;2023-05-07T09:10:58;34.30;15.70
26579;DHT22;14227;47.674;19.320;2023-05-07T09:13:24;34.20;16.40
26579;DHT22;14227;47.674;19.320;2023-05-07T09:15:50;34.10;16.50
26579;DHT22;14227;47.674;19.320;2023-05-07T09:18:16;34.10;16.50
26579;DHT22;14227;47.674;19.320;2023-05-07T09:20:42;34.50;16.10
26579;DHT22;14227;47.674;19.320;2023-05-07T09:23:08;34.90;16.40
26579;DHT22;14227;47.674;19.320;2023-05-07T09:25:35;35.00;17.20
26579;DHT22;14227;47.674;19.320;2023-05-07T09:28:02;35.00;17.40
26579;DHT22;14227;47.674;19.320;2023-05-07T09:30:32;34.70;17.00
26579;DHT22;14227;47.674;19.320;2023-05-07T09:32:58;34.40;16.70
26579;DHT22;14227;47.674;19.320;2023-05-07T09:35:25;34.60;16.40
26579;DHT22;14227;47.674;19.320;2023-05-07T09:37:57;35.30;16.80
26579;DHT22;14227;47.674;19.320;2023-05-07T09:40:25;35.30;15.90
26579;DHT22;14227;47.674;19.320;2023-05-07T09:42:51;35.10;15.90
26579;DHT22;14227;47.674;19.320;2023-05-07T09:45:28;35.40;15.30
26579;DHT22;14227;47.674;19.320;2023-05-07T09:47:55;35.80;15.30
26579;DHT22;14227;47.674;19.320;2023-05-07T09:50:39;36.20;15.00
26579;DHT22;14227;47.674;19.320;2023-05-07T09:53:06;36.30;14.70
26579;DHT22;14227;47.674;19.320;2023-05-07T09:55:32;36.10;14.90
26579;DHT22;14227;47.674;19.320;2023-05-07T09:57:58;36.00;14.90
26579;DHT22;14227;47.674;19.320;2023-05-07T10:00:25;36.50;14.80
26579;DHT22;14227;47.674;19.320;2023-05-07T10:02:52;37.00;14.50
26579;DHT22;14227;47.674;19.320;2023-05-07T10:05:19;37.70;13.90
26579;DHT22;14227;47.674;19.320;2023-05-07T10:07:48;37.70;13.00
26579;DHT22;14227;47.674;19.320;2023-05-07T10:10:15;37.00;14.20
26579;DHT22;14227;47.674;19.320;2023-05-07T10:12:41;36.20;14.60
26579;DHT22;14227;47.674;19.320;2023-05-07T10:15:10;35.50;15.00
26579;DHT22;14227;47.674;19.320;2023-05-07T10:17:37;34.60;16.30
26579;DHT22;14227;47.674;19.320;2023-05-07T10:20:04;34.10;17.00
26579;DHT22;14227;47.674;19.320;2023-05-07T10:22:37;33.80;17.30
26579;DHT22;14227;47.674;19.320;2023-05-07T10:25:09;33.40;17.40
26579;DHT22;14227;47.674;19.320;2023-05-07T10:27:40;33.40;18.20
26579;DHT22;14227;47.674;19.320;2023-05-07T10:30:13;33.60;18.40
26579;DHT22;14227;47.674;19.320;2023-05-07T10:32:49;33.40;18.80
26579;DHT22;14227;47.674;19.320;2023-05-07T10:35:42;32.40;18.40
26579;DHT22;14227;47.674;19.320;2023-05-07T10:38:09;31.60;19.20
26579;DHT22;14227;47.674;19.320;2023-05-07T10:40:36;31.00;20.40
26579;DHT22;14227;47.674;19.320;2023-05-07T10:43:03;30.50;20.60
26579;DHT22;14227;47.674;19.320;2023-05-07T10:45:32;29.90;20.30
26579;DHT22;14227;47.674;19.320;2023-05-07T10:48:08;29.60;21.00
26579;DHT22;14227;47.674;19.320;2023-05-07T10:50:35;29.50;21.00
26579;DHT22;14227;47.674;19.320;2023-05-07T10:55:42;31.30;19.00
26579;DHT22;14227;47.674;19.320;2023-05-07T10:58:24;31.80;18.30
26579;DHT22;14227;47.674;19.320;2023-05-07T11:01:11;32.20;18.60
26579;DHT22;14227;47.674;19.320;2023-05-07T11:04:14;32.10;17.90
26579;DHT22;14227;47.674;19.320;2023-05-07T11:06:40;32.20;18.00
26579;DHT22;14227;47.674;19.320;2023-05-07T11:09:06;32.50;18.20
26579;DHT22;14227;47.674;19.320;2023-05-07T11:11:49;32.60;17.40
26579;DHT22;14227;47.674;19.320;2023-05-07T11:14:50;32.60;17.80
26579;DHT22;14227;47.674;19.320;2023-05-07T11:17:19;32.50;17.60
26579;DHT22;14227;47.674;19.320;2023-05-07T11:19:50;32.60;17.00
26579;DHT22;14227;47.674;19.320;2023-05-07T11:25:04;31.90;18.50
26579;DHT22;14227;47.674;19.320;2023-05-07T11:27:31;31.40;19.50
26579;DHT22;14227;47.674;19.320;2023-05-07T11:29:57;31.00;19.80
26579;DHT22;14227;47.674;19.320;2023-05-07T11:32:27;30.70;20.40
26579;DHT22;14227;47.674;19.320;2023-05-07T11:35:00;30.70;20.70
26579;DHT22;14227;47.674;19.320;2023-05-07T11:37:27;31.00;20.90
26579;DHT22;14227;47.674;19.320;2023-05-07T11:40:08;31.30;20.00
26579;DHT22;14227;47.674;19.320;2023-05-07T11:42:37;31.50;20.50
26579;DHT22;14227;47.674;19.320;2023-05-07T11:45:04;31.70;19.70
26579;DHT22;14227;47.674;19.320;2023-05-07T11:47:31;32.30;19.60
26579;DHT22;14227;47.674;19.320;2023-05-07T11:50:05;32.90;18.20
26579;DHT22;14227;47.674;19.320;2023-05-07T11:52:31;33.20;18.60
26579;DHT22;14227;47.674;19.320;2023-05-07T11:54:59;33.80;17.70
26579;DHT22;14227;47.674;19.320;2023-05-07T11:57:26;34.50;17.70
26579;DHT22;14227;47.674;19.320;2023-05-07T11:59:55;35.20;17.00
26579;DHT22;14227;47.674;19.320;2023-05-07T12:02:21;36.00;16.20
26579;DHT22;14227;47.674;19.320;2023-05-07T12:04:47;36.60;15.20
26579;DHT22;14227;47.674;19.320;2023-05-07T12:07:13;36.70;14.40
26579;DHT22;14227;47.674;19.320;2023-05-07T12:09:41;36.40;14.70
26579;DHT22;14227;47.674;19.320;2023-05-07T12:12:06;35.80;14.50
26579;DHT22;14227;47.674;19.320;2023-05-07T12:14:32;35.40;15.20
26579;DHT22;14227;47.674;19.320;2023-05-07T12:17:00;35.00;16.10
26579;DHT22;14227;47.674;19.320;2023-05-07T12:19:29;34.50;15.90
26579;DHT22;14227;47.674;19.320;2023-05-07T12:21:56;33.80;17.00
26579;DHT22;14227;47.674;19.320;2023-05-07T12:24:22;33.40;17.40
26579;DHT22;14227;47.674;19.320;2023-05-07T12:26:48;33.40;17.80
26579;DHT22;14227;47.674;19.320;2023-05-07T12:29:14;33.60;18.10
26579;DHT22;14227;47.674;19.320;2023-05-07T12:31:43;33.90;18.40
26579;DHT22;14227;47.674;19.320;2023-05-07T12:34:11;33.70;18.20
26579;DHT22;14227;47.674;19.320;2023-05-07T12:36:38;33.50;18.40
26579;DHT22;14227;47.674;19.320;2023-05-07T12:39:05;33.30;18.40
26579;DHT22;14227;47.674;19.320;2023-05-07T12:41:51;33.00;19.60
26579;DHT22;14227;47.674;19.320;2023-05-07T12:44:17;32.90;19.90
26579;DHT22;14227;47.674;19.320;2023-05-07T12:46:42;33.30;19.10
26579;DHT22;14227;47.674;19.320;2023-05-07T12:49:08;33.70;19.00
26579;DHT22;14227;47.674;19.320;2023-05-07T12:51:35;33.90;18.60
26579;DHT22;14227;47.674;19.320;2023-05-07T12:54:01;33.90;18.50
26579;DHT22;14227;47.674;19.320;2023-05-07T12:56:26;34.00;17.80
26579;DHT22;14227;47.674;19.320;2023-05-07T12:58:57;34.20;16.60
26579;DHT22;14227;47.674;19.320;2023-05-07T13:01:34;34.20;15.80
26579;DHT22;14227;47.674;19.320;2023-05-07T13:04:03;34.20;15.80
26579;DHT22;14227;47.674;19.320;2023-05-07T13:06:30;34.10;16.10
26579;DHT22;14227;47.674;19.320;2023-05-07T13:08:56;34.00;16.10
26579;DHT22;14227;47.674;19.320;2023-05-07T13:11:22;33.60;15.50
26579;DHT22;14227;47.674;19.320;2023-05-07T13:13:48;33.10;16.10
26579;DHT22;14227;47.674;19.320;2023-05-07T13:16:14;32.80;16.60
26579;DHT22;14227;47.674;19.320;2023-05-07T13:18:40;32.80;17.10
26579;DHT22;14227;47.674;19.320;2023-05-07T13:21:06;33.20;16.30
26579;DHT22;14227;47.674;19.320;2023-05-07T13:23:32;33.50;16.80
26579;DHT22;14227;47.674;19.320;2023-05-07T13:25:57;33.60;17.00
26579;DHT22;14227;47.674;19.320;2023-05-07T13:28:24;33.60;18.10
26579;DHT22;14227;47.674;19.320;2023-05-07T13:30:50;33.50;17.50
26579;DHT22;14227;47.674;19.320;2023-05-07T13:33:17;33.50;17.50
26579;DHT22;14227;47.674;19.320;2023-05-07T13:35:43;33.50;17.10
26579;DHT22;14227;47.674;19.320;2023-05-07T13:38:09;33.50;17.40
26579;DHT22;14227;47.674;19.320;2023-05-07T13:40:35;33.50;16.70
26579;DHT22;14227;47.674;19.320;2023-05-07T13:43:01;33.50;17.20
26579;DHT22;14227;47.674;19.320;2023-05-07T13:45:29;33.40;17.00
26579;DHT22;14227;47.674;19.320;2023-05-07T13:47:56;33.10;16.60
26579;DHT22;14227;47.674;19.320;2023-05-07T13:50:22;32.80;17.10
26579;DHT22;14227;47.674;19.320;2023-05-07T13:52:48;32.40;17.50
26579;DHT22;14227;47.674;19.320;2023-05-07T13:55:17;32.20;17.70
26579;DHT22;14227;47.674;19.320;2023-05-07T13:57:43;32.00;18.00
26579;DHT22;14227;47.674;19.320;2023-05-07T14:00:10;32.10;18.30
26579;DHT22;14227;47.674;19.320;2023-05-07T14:02:37;32.10;18.30
26579;DHT22;14227;47.674;19.320;2023-05-07T14:05:02;32.20;18.00
26579;DHT22;14227;47.674;19.320;2023-05-07T14:07:28;32.30;18.60
26579;DHT22;14227;47.674;19.320;2023-05-07T14:09:54;32.30;18.30
26579;DHT22;14227;47.674;19.320;2023-05-07T14:12:20;32.30;18.50
26579;DHT22;14227;47.674;19.320;2023-05-07T14:14:46;32.40;18.70
26579;DHT22;14227;47.674;19.320;2023-05-07T14:17:12;32.40;17.90
26579;DHT22;14227;47.674;19.320;2023-05-07T14:19:38;32.40;18.80
26579;DHT22;14227;47.674;19.320;2023-05-07T14:22:04;32.20;18.80
26579;DHT22;14227;47.674;19.320;2023-05-07T14:24:29;32.20;18.40
26579;DHT22;14227;47.674;19.320;2023-05-07T14:26:55;32.10;18.40
26579;DHT22;14227;47.674;19.320;2023-05-07T14:29:21;32.00;18.80
26579;DHT22;14227;47.674;19.320;2023-05-07T14:31:48;32.00;18.30
26579;DHT22;14227;47.674;19.320;2023-05-07T14:34:13;31.90;18.10
26579;DHT22;14227;47.674;19.320;2023-05-07T14:36:39;31.70;18.50
26579;DHT22;14227;47.674;19.320;2023-05-07T14:39:05;31.50;18.90
26579;DHT22;14227;47.674;19.320;2023-05-07T14:41:31;31.40;18.90
26579;DHT22;14227;47.674;19.320;2023-05-07T14:43:58;31.50;18.70
26579;DHT22;14227;47.674;19.320;2023-05-07T14:46:24;31.60;18.30
26579;DHT22;14227;47.674;19.320;2023-05-07T14:48:50;31.60;18.80
26579;DHT22;14227;47.674;19.320;2023-05-07T14:51:16;31.70;18.60
26579;DHT22;14227;47.674;19.320;2023-05-07T14:53:41;31.50;17.80
26579;DHT22;14227;47.674;19.320;2023-05-07T14:56:07;31.20;17.90
26579;DHT22;14227;47.674;19.320;2023-05-07T14:58:34;30.90;18.40
26579;DHT22;14227;47.674;19.320;2023-05-07T15:01:00;30.80;18.40
26579;DHT22;14227;47.674;19.320;2023-05-07T15:03:26;30.70;18.90
26579;DHT22;14227;47.674;19.320;2023-05-07T15:05:52;30.50;18.10
26579;DHT22;14227;47.674;19.320;2023-05-07T15:08:18;30.40;18.70
26579;DHT22;14227;47.674;19.320;2023-05-07T15:10:43;30.40;18.70
26579;DHT22;14227;47.674;19.320;2023-05-07T15:13:10;30.20;18.80
26579;DHT22;14227;47.674;19.320;2023-05-07T15:15:36;30.10;18.90
26579;DHT22;14227;47.674;19.320;2023-05-07T15:18:03;30.10;19.30
26579;DHT22;14227;47.674;19.320;2023-05-07T15:20:29;30.00;18.80
26579;DHT22;14227;47.674;19.320;2023-05-07T15:22:55;29.90;19.30
26579;DHT22;14227;47.674;19.320;2023-05-07T15:25:21;29.90;19.60
26579;DHT22;14227;47.674;19.320;2023-05-07T15:27:47;29.70;19.00
26579;DHT22;14227;47.674;19.320;2023-05-07T15:30:13;29.40;20.00
26579;DHT22;14227;47.674;19.320;2023-05-07T15:32:40;29.30;20.00
26579;DHT22;14227;47.674;19.320;2023-05-07T15:35:07;29.10;20.00
26579;DHT22;14227;47.674;19.320;2023-05-07T15:37:33;29.00;20.00
26579;DHT22;14227;47.674;19.320;2023-05-07T15:39:59;28.80;20.20
26579;DHT22;14227;47.674;19.320;2023-05-07T15:42:24;28.60;20.50
26579;DHT22;14227;47.674;19.320;2023-05-07T15:44:50;28.60;20.40
26579;DHT22;14227;47.674;19.320;2023-05-07T15:47:16;28.50;20.20
26579;DHT22;14227;47.674;19.320;2023-05-07T15:49:42;28.50;20.60
26579;DHT22;14227;47.674;19.320;2023-05-07T15:52:08;28.40;20.70
26579;DHT22;14227;47.674;19.320;2023-05-07T15:54:39;28.40;21.10
26579;DHT22;14227;47.674;19.320;2023-05-07T15:57:05;28.40;21.10
26579;DHT22;14227;47.674;19.320;2023-05-07T15:59:32;28.40;20.60
26579;DHT22;14227;47.674;19.320;2023-05-07T16:01:58;28.40;21.10
26579;DHT22;14227;47.674;19.320;2023-05-07T16:04:24;28.20;20.90
26579;DHT22;14227;47.674;19.320;2023-05-07T16:06:50;27.90;21.50
26579;DHT22;14227;47.674;19.320;2023-05-07T16:09:16;27.80;22.00
26579;DHT22;14227;47.674;19.320;2023-05-07T16:11:42;27.40;21.40
26579;DHT22;14227;47.674;19.320;2023-05-07T16:14:08;27.20;21.60
26579;DHT22;14227;47.674;19.320;2023-05-07T16:16:34;26.90;22.30
26579;DHT22;14227;47.674;19.320;2023-05-07T16:19:00;26.70;22.70
26579;DHT22;14227;47.674;19.320;2023-05-07T16:21:26;26.50;23.10
26579;DHT22;14227;47.674;19.320;2023-05-07T16:23:52;26.20;23.10
26579;DHT22;14227;47.674;19.320;2023-05-07T16:26:18;26.10;23.90
26579;DHT22;14227;47.674;19.320;2023-05-07T16:28:43;26.00;24.40
26579;DHT22;14227;47.674;19.320;2023-05-07T16:31:09;25.80;24.60
26579;DHT22;14227;47.674;19.320;2023-05-07T16:33:35;25.70;24.80
26579;DHT22;14227;47.674;19.320;2023-05-07T16:36:01;25.60;24.90
26579;DHT22;14227;47.674;19.320;2023-05-07T16:38:28;25.40;24.90
26579;DHT22;14227;47.674;19.320;2023-05-07T16:40:57;25.10;25.40
26579;DHT22;14227;47.674;19.320;2023-05-07T16:43:23;24.80;25.60
26579;DHT22;14227;47.674;19.320;2023-05-07T16:45:50;24.50;25.70
26579;DHT22;14227;47.674;19.320;2023-05-07T16:48:16;24.30;26.40
26579;DHT22;14227;47.674;19.320;2023-05-07T16:50:42;24.10;26.30
26579;DHT22;14227;47.674;19.320;2023-05-07T16:53:09;23.90;26.80
26579;DHT22;14227;47.674;19.320;2023-05-07T16:55:39;23.80;27.10
26579;DHT22;14227;47.674;19.320;2023-05-07T16:58:06;23.50;27.40
26579;DHT22;14227;47.674;19.320;2023-05-07T17:00:32;23.30;27.40
26579;DHT22;14227;47.674;19.320;2023-05-07T17:02:58;23.10;27.10
26579;DHT22;14227;47.674;19.320;2023-05-07T17:05:23;22.80;27.50
26579;DHT22;14227;47.674;19.320;2023-05-07T17:07:49;22.60;27.70
26579;DHT22;14227;47.674;19.320;2023-05-07T17:10:16;22.50;28.20
26579;DHT22;14227;47.674;19.320;2023-05-07T17:12:42;22.40;28.70
26579;DHT22;14227;47.674;19.320;2023-05-07T17:15:08;22.30;29.20
26579;DHT22;14227;47.674;19.320;2023-05-07T17:17:34;22.00;29.20
26579;DHT22;14227;47.674;19.320;2023-05-07T17:20:00;21.90;29.70
26579;DHT22;14227;47.674;19.320;2023-05-07T17:22:26;21.80;30.00
26579;DHT22;14227;47.674;19.320;2023-05-07T17:24:51;21.60;30.30
26579;DHT22;14227;47.674;19.320;2023-05-07T17:27:17;21.40;30.60
26579;DHT22;14227;47.674;19.320;2023-05-07T17:29:43;21.30;31.20
26579;DHT22;14227;47.674;19.320;2023-05-07T17:32:09;21.20;31.80
26579;DHT22;14227;47.674;19.320;2023-05-07T17:34:35;20.90;32.10
26579;DHT22;14227;47.674;19.320;2023-05-07T17:37:01;20.70;32.60
26579;DHT22;14227;47.674;19.320;2023-05-07T17:39:27;20.50;33.30
26579;DHT22;14227;47.674;19.320;2023-05-07T17:41:52;20.50;33.30
26579;DHT22;14227;47.674;19.320;2023-05-07T17:44:18;20.30;33.40
26579;DHT22;14227;47.674;19.320;2023-05-07T17:46:45;20.10;33.80
26579;DHT22;14227;47.674;19.320;2023-05-07T17:49:11;19.90;34.30
26579;DHT22;14227;47.674;19.320;2023-05-07T17:51:37;19.70;34.30
26579;DHT22;14227;47.674;19.320;2023-05-07T17:54:02;19.60;34.90
26579;DHT22;14227;47.674;19.320;2023-05-07T17:56:28;19.40;35.10
26579;DHT22;14227;47.674;19.320;2023-05-07T17:58:54;19.20;35.20
26579;DHT22;14227;47.674;19.320;2023-05-07T18:01:20;19.00;35.60
26579;DHT22;14227;47.674;19.320;2023-05-07T18:03:46;18.80;36.90
26579;DHT22;14227;47.674;19.320;2023-05-07T18:06:11;18.60;39.60
26579;DHT22;14227;47.674;19.320;2023-05-07T18:08:46;18.30;42.50
26579;DHT22;14227;47.674;19.320;2023-05-07T18:11:12;18.00;43.90
26579;DHT22;14227;47.674;19.320;2023-05-07T18:13:38;17.70;45.10
26579;DHT22;14227;47.674;19.320;2023-05-07T18:16:05;17.50;46.10
26579;DHT22;14227;47.674;19.320;2023-05-07T18:18:30;17.20;46.70
26579;DHT22;14227;47.674;19.320;2023-05-07T18:21:00;17.00;46.80
26579;DHT22;14227;47.674;19.320;2023-05-07T18:23:27;16.80;46.80
26579;DHT22;14227;47.674;19.320;2023-05-07T18:25:53;16.60;47.70
26579;DHT22;14227;47.674;19.320;2023-05-07T18:28:18;16.40;48.20
26579;DHT22;14227;47.674;19.320;2023-05-07T18:30:44;16.20;48.20
26579;DHT22;14227;47.674;19.320;2023-05-07T18:33:11;16.00;49.30
26579;DHT22;14227;47.674;19.320;2023-05-07T18:35:37;15.80;50.10
26579;DHT22;14227;47.674;19.320;2023-05-07T18:38:03;15.60;50.10
26579;DHT22;14227;47.674;19.320;2023-05-07T18:40:28;15.50;50.10
26579;DHT22;14227;47.674;19.320;2023-05-07T18:42:54;15.40;50.70
26579;DHT22;14227;47.674;19.320;2023-05-07T18:45:20;15.20;50.50
26579;DHT22;14227;47.674;19.320;2023-05-07T18:47:46;15.10;50.40
26579;DHT22;14227;47.674;19.320;2023-05-07T18:50:12;15.00;50.30
26579;DHT22;14227;47.674;19.320;2023-05-07T18:52:38;14.90;50.90
26579;DHT22;14227;47.674;19.320;2023-05-07T18:55:05;14.80;51.50
26579;DHT22;14227;47.674;19.320;2023-05-07T18:57:31;14.70;51.60
26579;DHT22;14227;47.674;19.320;2023-05-07T18:59:56;14.60;51.50
26579;DHT22;14227;47.674;19.320;2023-05-07T19:02:22;14.50;51.20
26579;DHT22;14227;47.674;19.320;2023-05-07T19:04:48;14.40;51.50
26579;DHT22;14227;47.674;19.320;2023-05-07T19:07:15;14.30;51.60
26579;DHT22;14227;47.674;19.320;2023-05-07T19:09:40;14.20;51.60
26579;DHT22;14227;47.674;19.320;2023-05-07T19:12:06;14.20;52.00
26579;DHT22;14227;47.674;19.320;2023-05-07T19:14:32;14.00;51.90
26579;DHT22;14227;47.674;19.320;2023-05-07T19:16:58;14.00;52.10
26579;DHT22;14227;47.674;19.320;2023-05-07T19:19:25;14.00;51.80
26579;DHT22;14227;47.674;19.320;2023-05-07T19:21:51;13.80;52.20
26579;DHT22;14227;47.674;19.320;2023-05-07T19:24:17;13.80;52.50
26579;DHT22;14227;47.674;19.320;2023-05-07T19:26:43;13.70;52.90
26579;DHT22;14227;47.674;19.320;2023-05-07T19:29:09;13.70;52.70
26579;DHT22;14227;47.674;19.320;2023-05-07T19:31:35;13.60;52.80
26579;DHT22;14227;47.674;19.320;2023-05-07T19:34:01;13.60;52.30
26579;DHT22;14227;47.674;19.320;2023-05-07T19:36:27;13.60;52.10
26579;DHT22;14227;47.674;19.320;2023-05-07T19:38:52;13.50;51.80
26579;DHT22;14227;47.674;19.320;2023-05-07T19:41:22;13.50;51.70
26579;DHT22;14227;47.674;19.320;2023-05-07T19:43:48;13.50;51.90
26579;DHT22;14227;47.674;19.320;2023-05-07T19:46:13;13.40;52.10
26579;DHT22;14227;47.674;19.320;2023-05-07T19:48:41;13.30;52.10
26579;DHT22;14227;47.674;19.320;2023-05-07T19:51:07;13.30;51.80
26579;DHT22;14227;47.674;19.320;2023-05-07T19:53:32;13.20;52.50
26579;DHT22;14227;47.674;19.320;2023-05-07T19:56:06;13.20;52.20
26579;DHT22;14227;47.674;19.320;2023-05-07T19:58:33;13.10;52.90
26579;DHT22;14227;47.674;19.320;2023-05-07T20:00:59;13.00;52.90
26579;DHT22;14227;47.674;19.320;2023-05-07T20:03:29;13.00;52.60
26579;DHT22;14227;47.674;19.320;2023-05-07T20:05:55;12.90;53.30
26579;DHT22;14227;47.674;19.320;2023-05-07T20:08:21;12.90;53.00
26579;DHT22;14227;47.674;19.320;2023-05-07T20:10:48;12.90;52.80
26579;DHT22;14227;47.674;19.320;2023-05-07T20:13:14;12.80;52.70
26579;DHT22;14227;47.674;19.320;2023-05-07T20:15:40;12.80;52.50
26579;DHT22;14227;47.674;19.320;2023-05-07T20:18:05;12.80;53.10
26579;DHT22;14227;47.674;19.320;2023-05-07T20:20:31;12.70;52.70
26579;DHT22;14227;47.674;19.320;2023-05-07T20:22:57;12.60;53.60
26579;DHT22;14227;47.674;19.320;2023-05-07T20:25:23;12.50;52.90
26579;DHT22;14227;47.674;19.320;2023-05-07T20:27:48;12.40;52.80
26579;DHT22;14227;47.674;19.320;2023-05-07T20:30:14;12.30;52.80
26579;DHT22;14227;47.674;19.320;2023-05-07T20:32:40;12.20;53.30
26579;DHT22;14227;47.674;19.320;2023-05-07T20:35:06;12.00;53.20
26579;DHT22;14227;47.674;19.320;2023-05-07T20:37:32;11.90;53.80
26579;DHT22;14227;47.674;19.320;2023-05-07T20:39:59;11.80;54.30
26579;DHT22;14227;47.674;19.320;2023-05-07T20:42:25;11.70;54.40
26579;DHT22;14227;47.674;19.320;2023-05-07T20:44:51;11.60;54.70
26579;DHT22;14227;47.674;19.320;2023-05-07T20:47:17;11.60;55.20
26579;DHT22;14227;47.674;19.320;2023-05-07T20:49:42;11.50;55.50